EGNX Airport Information

Runway Information
Runway 09 Length 9491 ft width 151 ft
Elevation 306 ft Threshold 590 ft Heading 88
Runway 27 Length 9491 ft Width 151 ft
Elevation 282 ft Threshold 426 ft Heading 268
Airport Frequencies
Type APP Name APP Frequency 134.175 MHZ
Type ATIS Name ATIS Frequency 128.225 MHZ
Type Fire servi Name Frequency 121.6 MHZ
Type GND Name GND Frequency 121.9 MHZ
Type TWR Name TWR Frequency 124 MHZ
Airport Navaids
Airport Weather Information & NOTAM
ADDS - METARS form results

(0338 UTC 29 June 2017)
 
METAR text: EGNX 290320Z 27012KT 6000 -RADZ FEW003 OVC014 10/10 Q0993 REDZ
Conditions at: EGNX (EAST MIDLANDS , GB) observed 0320 UTC 29 June 2017
Temperature: 10.0°C (50°F)
Dewpoint: 10.0°C (50°F) [RH = 100%]
Pressure (altimeter): 29.32 inches Hg (993.0 mb)
Winds: from the W (270 degrees) at 14 MPH (12 knots; 6.2 m/s)
Visibility: 4 miles (6 km)
Ceiling: 1400 feet AGL
Clouds: few clouds at 300 feet AGL
overcast cloud deck at 1400 feet AGL
Weather: -RA -DZ  (light rain, light drizzle)

METAR text: EGNX 290250Z 27012KT 4000 DZ OVC012 10/10 Q0994
Conditions at: EGNX (EAST MIDLANDS , GB) observed 0250 UTC 29 June 2017
Temperature: 10.0°C (50°F)
Dewpoint: 10.0°C (50°F) [RH = 100%]
Pressure (altimeter): 29.35 inches Hg (994.0 mb)
Winds: from the W (270 degrees) at 14 MPH (12 knots; 6.2 m/s)
Visibility: 2.49 miles (4.01 km)
Ceiling: 1200 feet AGL
Clouds: overcast cloud deck at 1200 feet AGL
Weather: DZ  (drizzle)